sensor_id;sensor_type;location;lat;lon;timestamp;temperature;humidity
21425;DHT22;10873;51.132;16.848;2022-10-31T00:01:22;24.60;56.00
21425;DHT22;10873;51.132;16.848;2022-10-31T00:03:49;24.60;56.00
21425;DHT22;10873;51.132;16.848;2022-10-31T00:06:15;24.60;55.90
21425;DHT22;10873;51.132;16.848;2022-10-31T00:08:45;24.60;55.90
21425;DHT22;10873;51.132;16.848;2022-10-31T00:11:11;24.60;55.90
21425;DHT22;10873;51.132;16.848;2022-10-31T00:13:37;24.60;55.80
21425;DHT22;10873;51.132;16.848;2022-10-31T00:16:12;24.60;55.80
21425;DHT22;10873;51.132;16.848;2022-10-31T00:18:38;24.60;55.80
21425;DHT22;10873;51.132;16.848;2022-10-31T00:21:04;24.50;55.70
21425;DHT22;10873;51.132;16.848;2022-10-31T00:23:31;24.50;55.60
21425;DHT22;10873;51.132;16.848;2022-10-31T00:26:00;24.50;55.60
21425;DHT22;10873;51.132;16.848;2022-10-31T00:28:27;24.50;55.60
21425;DHT22;10873;51.132;16.848;2022-10-31T00:30:58;24.50;55.50
21425;DHT22;10873;51.132;16.848;2022-10-31T00:33:26;24.50;55.50
21425;DHT22;10873;51.132;16.848;2022-10-31T00:35:52;24.50;55.60
21425;DHT22;10873;51.132;16.848;2022-10-31T00:38:18;24.50;55.60
21425;DHT22;10873;51.132;16.848;2022-10-31T00:40:44;24.50;55.60
21425;DHT22;10873;51.132;16.848;2022-10-31T00:43:11;24.50;55.60
21425;DHT22;10873;51.132;16.848;2022-10-31T00:45:37;24.50;55.60
21425;DHT22;10873;51.132;16.848;2022-10-31T00:48:04;24.50;55.60
21425;DHT22;10873;51.132;16.848;2022-10-31T00:50:31;24.50;55.60
21425;DHT22;10873;51.132;16.848;2022-10-31T00:52:58;24.50;55.60
21425;DHT22;10873;51.132;16.848;2022-10-31T00:55:24;24.50;55.60
21425;DHT22;10873;51.132;16.848;2022-10-31T00:57:50;24.50;55.60
21425;DHT22;10873;51.132;16.848;2022-10-31T01:00:16;24.50;55.50
21425;DHT22;10873;51.132;16.848;2022-10-31T01:02:43;24.50;55.50
21425;DHT22;10873;51.132;16.848;2022-10-31T01:05:09;24.50;55.50
21425;DHT22;10873;51.132;16.848;2022-10-31T01:07:37;24.50;55.40
21425;DHT22;10873;51.132;16.848;2022-10-31T01:10:04;24.40;55.30
21425;DHT22;10873;51.132;16.848;2022-10-31T01:12:36;24.40;55.40
21425;DHT22;10873;51.132;16.848;2022-10-31T01:15:02;24.40;55.40
21425;DHT22;10873;51.132;16.848;2022-10-31T01:17:29;24.40;55.40
21425;DHT22;10873;51.132;16.848;2022-10-31T01:19:55;24.40;55.50
21425;DHT22;10873;51.132;16.848;2022-10-31T01:22:21;24.40;55.50
21425;DHT22;10873;51.132;16.848;2022-10-31T01:24:49;24.40;55.50
21425;DHT22;10873;51.132;16.848;2022-10-31T01:27:15;24.30;55.50
21425;DHT22;10873;51.132;16.848;2022-10-31T01:29:41;24.40;55.50
21425;DHT22;10873;51.132;16.848;2022-10-31T01:32:07;24.40;55.50
21425;DHT22;10873;51.132;16.848;2022-10-31T01:34:33;24.30;55.40
21425;DHT22;10873;51.132;16.848;2022-10-31T01:37:00;24.30;55.40
21425;DHT22;10873;51.132;16.848;2022-10-31T01:39:26;24.30;55.40
21425;DHT22;10873;51.132;16.848;2022-10-31T01:41:54;24.40;55.40
21425;DHT22;10873;51.132;16.848;2022-10-31T01:44:48;24.40;55.40
21425;DHT22;10873;51.132;16.848;2022-10-31T01:47:18;24.50;55.40
21425;DHT22;10873;51.132;16.848;2022-10-31T01:49:46;24.50;55.30
21425;DHT22;10873;51.132;16.848;2022-10-31T01:52:18;24.50;55.20
21425;DHT22;10873;51.132;16.848;2022-10-31T01:54:50;24.50;55.10
21425;DHT22;10873;51.132;16.848;2022-10-31T01:57:20;24.50;55.00
21425;DHT22;10873;51.132;16.848;2022-10-31T01:59:49;24.50;55.00
21425;DHT22;10873;51.132;16.848;2022-10-31T02:02:18;24.50;54.90
21425;DHT22;10873;51.132;16.848;2022-10-31T02:04:44;24.50;54.90
21425;DHT22;10873;51.132;16.848;2022-10-31T02:07:14;24.50;54.90
21425;DHT22;10873;51.132;16.848;2022-10-31T02:09:42;24.50;54.80
21425;DHT22;10873;51.132;16.848;2022-10-31T02:12:10;24.50;54.80
21425;DHT22;10873;51.132;16.848;2022-10-31T02:14:38;24.50;54.80
21425;DHT22;10873;51.132;16.848;2022-10-31T02:17:05;24.50;54.90
21425;DHT22;10873;51.132;16.848;2022-10-31T02:19:37;24.50;55.50
21425;DHT22;10873;51.132;16.848;2022-10-31T02:22:09;24.50;54.90
21425;DHT22;10873;51.132;16.848;2022-10-31T02:24:51;24.50;54.80
21425;DHT22;10873;51.132;16.848;2022-10-31T02:30:19;24.50;54.80
21425;DHT22;10873;51.132;16.848;2022-10-31T02:33:15;24.50;54.80
21425;DHT22;10873;51.132;16.848;2022-10-31T02:35:54;24.50;54.70
21425;DHT22;10873;51.132;16.848;2022-10-31T02:38:36;24.40;54.70
21425;DHT22;10873;51.132;16.848;2022-10-31T02:41:10;24.40;54.70
21425;DHT22;10873;51.132;16.848;2022-10-31T02:43:47;24.40;54.70
21425;DHT22;10873;51.132;16.848;2022-10-31T02:46:20;24.30;54.70
21425;DHT22;10873;51.132;16.848;2022-10-31T02:48:52;24.30;54.70
21425;DHT22;10873;51.132;16.848;2022-10-31T02:51:20;24.30;54.80
21425;DHT22;10873;51.132;16.848;2022-10-31T02:53:46;24.30;54.90
21425;DHT22;10873;51.132;16.848;2022-10-31T02:56:14;24.20;55.00
21425;DHT22;10873;51.132;16.848;2022-10-31T02:58:46;24.20;55.00
21425;DHT22;10873;51.132;16.848;2022-10-31T03:01:48;24.20;55.00
21425;DHT22;10873;51.132;16.848;2022-10-31T03:04:32;24.20;55.70
21425;DHT22;10873;51.132;16.848;2022-10-31T03:07:08;24.30;54.90
21425;DHT22;10873;51.132;16.848;2022-10-31T03:09:42;24.30;54.90
21425;DHT22;10873;51.132;16.848;2022-10-31T03:12:13;24.30;54.90
21425;DHT22;10873;51.132;16.848;2022-10-31T03:14:43;24.30;54.80
21425;DHT22;10873;51.132;16.848;2022-10-31T03:17:19;24.30;54.80
21425;DHT22;10873;51.132;16.848;2022-10-31T03:19:49;24.20;54.80
21425;DHT22;10873;51.132;16.848;2022-10-31T03:22:21;24.20;54.80
21425;DHT22;10873;51.132;16.848;2022-10-31T03:24:48;24.20;54.80
21425;DHT22;10873;51.132;16.848;2022-10-31T03:27:19;24.20;54.90
21425;DHT22;10873;51.132;16.848;2022-10-31T03:29:47;24.20;54.80
21425;DHT22;10873;51.132;16.848;2022-10-31T03:32:17;24.20;54.80
21425;DHT22;10873;51.132;16.848;2022-10-31T03:34:47;24.20;54.70
21425;DHT22;10873;51.132;16.848;2022-10-31T03:37:17;24.20;54.60
21425;DHT22;10873;51.132;16.848;2022-10-31T03:39:46;24.20;54.50
21425;DHT22;10873;51.132;16.848;2022-10-31T03:42:15;24.20;54.40
21425;DHT22;10873;51.132;16.848;2022-10-31T03:44:45;24.20;54.40
21425;DHT22;10873;51.132;16.848;2022-10-31T03:47:13;24.20;54.40
21425;DHT22;10873;51.132;16.848;2022-10-31T03:49:39;24.10;54.30
21425;DHT22;10873;51.132;16.848;2022-10-31T03:52:13;24.10;54.40
21425;DHT22;10873;51.132;16.848;2022-10-31T03:54:45;24.10;54.40
21425;DHT22;10873;51.132;16.848;2022-10-31T03:57:21;24.10;54.40
21425;DHT22;10873;51.132;16.848;2022-10-31T03:59:52;24.10;54.40
21425;DHT22;10873;51.132;16.848;2022-10-31T04:02:22;24.20;54.40
21425;DHT22;10873;51.132;16.848;2022-10-31T04:04:49;24.20;54.20
21425;DHT22;10873;51.132;16.848;2022-10-31T04:07:18;24.20;54.20
21425;DHT22;10873;51.132;16.848;2022-10-31T04:09:47;24.20;54.10
21425;DHT22;10873;51.132;16.848;2022-10-31T04:12:16;24.10;54.00
21425;DHT22;10873;51.132;16.848;2022-10-31T04:14:46;24.10;54.00
21425;DHT22;10873;51.132;16.848;2022-10-31T04:17:15;24.10;54.60
21425;DHT22;10873;51.132;16.848;2022-10-31T04:19:42;24.10;54.00
21425;DHT22;10873;51.132;16.848;2022-10-31T04:22:08;24.10;54.00
21425;DHT22;10873;51.132;16.848;2022-10-31T04:24:37;24.00;54.00
21425;DHT22;10873;51.132;16.848;2022-10-31T04:27:05;24.10;54.10
21425;DHT22;10873;51.132;16.848;2022-10-31T04:29:31;24.10;54.00
21425;DHT22;10873;51.132;16.848;2022-10-31T04:31:57;24.20;53.90
21425;DHT22;10873;51.132;16.848;2022-10-31T04:34:23;24.20;53.80
21425;DHT22;10873;51.132;16.848;2022-10-31T04:36:49;24.10;53.70
21425;DHT22;10873;51.132;16.848;2022-10-31T04:39:15;24.20;53.70
21425;DHT22;10873;51.132;16.848;2022-10-31T04:41:43;24.10;53.70
21425;DHT22;10873;51.132;16.848;2022-10-31T04:44:09;24.10;53.60
21425;DHT22;10873;51.132;16.848;2022-10-31T04:46:35;24.10;53.60
21425;DHT22;10873;51.132;16.848;2022-10-31T04:49:01;24.10;53.60
21425;DHT22;10873;51.132;16.848;2022-10-31T04:51:27;24.00;53.60
21425;DHT22;10873;51.132;16.848;2022-10-31T04:53:53;24.00;53.70
21425;DHT22;10873;51.132;16.848;2022-10-31T04:56:19;24.00;53.70
21425;DHT22;10873;51.132;16.848;2022-10-31T04:58:47;24.00;53.70
21425;DHT22;10873;51.132;16.848;2022-10-31T05:01:13;24.10;53.70
21425;DHT22;10873;51.132;16.848;2022-10-31T05:03:39;24.10;53.70
21425;DHT22;10873;51.132;16.848;2022-10-31T05:06:05;24.20;53.60
21425;DHT22;10873;51.132;16.848;2022-10-31T05:08:32;24.10;53.60
21425;DHT22;10873;51.132;16.848;2022-10-31T05:11:00;24.10;53.60
21425;DHT22;10873;51.132;16.848;2022-10-31T05:13:26;24.10;53.50
21425;DHT22;10873;51.132;16.848;2022-10-31T05:15:54;24.00;53.50
21425;DHT22;10873;51.132;16.848;2022-10-31T05:18:20;24.00;53.50
21425;DHT22;10873;51.132;16.848;2022-10-31T05:20:46;24.00;53.60
21425;DHT22;10873;51.132;16.848;2022-10-31T05:23:13;24.00;53.70
21425;DHT22;10873;51.132;16.848;2022-10-31T05:25:40;24.00;53.80
21425;DHT22;10873;51.132;16.848;2022-10-31T05:28:06;24.10;53.80
21425;DHT22;10873;51.132;16.848;2022-10-31T05:30:33;24.10;54.40
21425;DHT22;10873;51.132;16.848;2022-10-31T05:33:01;24.10;53.70
21425;DHT22;10873;51.132;16.848;2022-10-31T05:35:29;24.10;53.60
21425;DHT22;10873;51.132;16.848;2022-10-31T05:37:55;24.10;53.60
21425;DHT22;10873;51.132;16.848;2022-10-31T05:40:22;24.10;53.60
21425;DHT22;10873;51.132;16.848;2022-10-31T05:42:50;24.10;53.50
21425;DHT22;10873;51.132;16.848;2022-10-31T05:45:18;24.10;53.50
21425;DHT22;10873;51.132;16.848;2022-10-31T05:47:50;24.00;53.40
21425;DHT22;10873;51.132;16.848;2022-10-31T05:50:18;24.00;53.40
21425;DHT22;10873;51.132;16.848;2022-10-31T05:52:44;24.00;53.40
21425;DHT22;10873;51.132;16.848;2022-10-31T05:55:10;23.90;53.40
21425;DHT22;10873;51.132;16.848;2022-10-31T05:57:36;24.00;53.50
21425;DHT22;10873;51.132;16.848;2022-10-31T06:00:03;24.00;53.40
21425;DHT22;10873;51.132;16.848;2022-10-31T06:02:30;24.00;53.40
21425;DHT22;10873;51.132;16.848;2022-10-31T06:05:00;24.00;53.30
21425;DHT22;10873;51.132;16.848;2022-10-31T06:07:32;24.00;53.20
21425;DHT22;10873;51.132;16.848;2022-10-31T06:10:00;24.10;53.20
21425;DHT22;10873;51.132;16.848;2022-10-31T06:12:26;24.10;53.10
21425;DHT22;10873;51.132;16.848;2022-10-31T06:14:52;24.10;53.10
21425;DHT22;10873;51.132;16.848;2022-10-31T06:17:18;24.10;53.00
21425;DHT22;10873;51.132;16.848;2022-10-31T06:19:44;24.10;53.00
21425;DHT22;10873;51.132;16.848;2022-10-31T06:22:10;24.10;53.00
21425;DHT22;10873;51.132;16.848;2022-10-31T06:24:39;24.10;53.10
21425;DHT22;10873;51.132;16.848;2022-10-31T06:27:05;24.00;53.10
21425;DHT22;10873;51.132;16.848;2022-10-31T06:29:31;24.00;53.10
21425;DHT22;10873;51.132;16.848;2022-10-31T06:31:57;24.00;53.20
21425;DHT22;10873;51.132;16.848;2022-10-31T06:34:23;24.00;53.30
21425;DHT22;10873;51.132;16.848;2022-10-31T06:36:49;24.00;53.40
21425;DHT22;10873;51.132;16.848;2022-10-31T06:39:15;24.00;53.40
21425;DHT22;10873;51.132;16.848;2022-10-31T06:41:43;24.00;53.40
21425;DHT22;10873;51.132;16.848;2022-10-31T06:44:09;24.00;53.40
21425;DHT22;10873;51.132;16.848;2022-10-31T06:46:35;24.10;53.50
21425;DHT22;10873;51.132;16.848;2022-10-31T06:49:01;24.10;53.40
21425;DHT22;10873;51.132;16.848;2022-10-31T06:51:27;24.10;53.40
21425;DHT22;10873;51.132;16.848;2022-10-31T06:53:54;24.10;53.50
21425;DHT22;10873;51.132;16.848;2022-10-31T06:56:20;24.10;53.50
21425;DHT22;10873;51.132;16.848;2022-10-31T06:58:47;24.20;53.60
21425;DHT22;10873;51.132;16.848;2022-10-31T07:01:14;24.10;53.70
21425;DHT22;10873;51.132;16.848;2022-10-31T07:03:40;24.10;53.70
21425;DHT22;10873;51.132;16.848;2022-10-31T07:06:06;24.10;53.90
21425;DHT22;10873;51.132;16.848;2022-10-31T07:08:32;24.10;54.00
21425;DHT22;10873;51.132;16.848;2022-10-31T07:10:58;24.10;54.10
21425;DHT22;10873;51.132;16.848;2022-10-31T07:13:25;24.10;54.20
21425;DHT22;10873;51.132;16.848;2022-10-31T07:15:54;24.00;54.40
21425;DHT22;10873;51.132;16.848;2022-10-31T07:18:20;24.00;54.60
21425;DHT22;10873;51.132;16.848;2022-10-31T07:20:46;24.10;54.80
21425;DHT22;10873;51.132;16.848;2022-10-31T07:23:13;24.20;55.10
21425;DHT22;10873;51.132;16.848;2022-10-31T07:25:39;24.20;55.10
21425;DHT22;10873;51.132;16.848;2022-10-31T07:28:06;24.20;55.20
21425;DHT22;10873;51.132;16.848;2022-10-31T07:30:32;24.20;55.30
21425;DHT22;10873;51.132;16.848;2022-10-31T07:33:00;24.30;55.50
21425;DHT22;10873;51.132;16.848;2022-10-31T07:35:27;24.30;55.70
21425;DHT22;10873;51.132;16.848;2022-10-31T07:37:54;24.30;55.80
21425;DHT22;10873;51.132;16.848;2022-10-31T07:40:21;24.30;56.10
21425;DHT22;10873;51.132;16.848;2022-10-31T07:42:51;24.30;56.20
21425;DHT22;10873;51.132;16.848;2022-10-31T07:45:18;24.30;56.40
21425;DHT22;10873;51.132;16.848;2022-10-31T07:47:46;24.30;56.70
21425;DHT22;10873;51.132;16.848;2022-10-31T07:50:16;24.30;56.80
21425;DHT22;10873;51.132;16.848;2022-10-31T07:52:43;24.30;57.10
21425;DHT22;10873;51.132;16.848;2022-10-31T07:55:09;24.30;57.30
21425;DHT22;10873;51.132;16.848;2022-10-31T07:57:36;24.30;57.50
21425;DHT22;10873;51.132;16.848;2022-10-31T08:00:03;24.30;57.70
21425;DHT22;10873;51.132;16.848;2022-10-31T08:02:29;24.30;57.90
21425;DHT22;10873;51.132;16.848;2022-10-31T08:04:55;24.30;58.10
21425;DHT22;10873;51.132;16.848;2022-10-31T08:07:23;24.30;58.30
21425;DHT22;10873;51.132;16.848;2022-10-31T08:09:49;24.30;58.50
21425;DHT22;10873;51.132;16.848;2022-10-31T08:12:15;24.30;58.70
21425;DHT22;10873;51.132;16.848;2022-10-31T08:14:41;24.40;58.90
21425;DHT22;10873;51.132;16.848;2022-10-31T08:17:08;24.30;59.00
21425;DHT22;10873;51.132;16.848;2022-10-31T08:19:34;24.40;59.20
21425;DHT22;10873;51.132;16.848;2022-10-31T08:22:00;24.40;59.30
21425;DHT22;10873;51.132;16.848;2022-10-31T08:24:29;24.40;59.30
21425;DHT22;10873;51.132;16.848;2022-10-31T08:26:55;24.40;59.40
21425;DHT22;10873;51.132;16.848;2022-10-31T08:29:21;24.40;59.40
21425;DHT22;10873;51.132;16.848;2022-10-31T08:31:47;24.40;59.40
21425;DHT22;10873;51.132;16.848;2022-10-31T08:34:13;24.40;59.50
21425;DHT22;10873;51.132;16.848;2022-10-31T08:36:40;24.40;59.50
21425;DHT22;10873;51.132;16.848;2022-10-31T08:39:06;24.40;59.70
21425;DHT22;10873;51.132;16.848;2022-10-31T08:41:33;24.40;59.70
21425;DHT22;10873;51.132;16.848;2022-10-31T08:44:00;24.40;59.80
21425;DHT22;10873;51.132;16.848;2022-10-31T08:46:27;24.40;59.80
21425;DHT22;10873;51.132;16.848;2022-10-31T08:48:53;24.40;60.00
21425;DHT22;10873;51.132;16.848;2022-10-31T08:51:19;24.50;60.20
21425;DHT22;10873;51.132;16.848;2022-10-31T08:53:45;24.40;60.20
21425;DHT22;10873;51.132;16.848;2022-10-31T08:56:12;24.40;60.40
21425;DHT22;10873;51.132;16.848;2022-10-31T08:58:39;24.40;60.40
21425;DHT22;10873;51.132;16.848;2022-10-31T09:01:05;24.50;60.60
21425;DHT22;10873;51.132;16.848;2022-10-31T09:03:31;24.50;60.60
21425;DHT22;10873;51.132;16.848;2022-10-31T09:05:59;24.40;60.50
21425;DHT22;10873;51.132;16.848;2022-10-31T09:08:25;24.50;60.90
21425;DHT22;10873;51.132;16.848;2022-10-31T09:10:52;24.50;60.60
21425;DHT22;10873;51.132;16.848;2022-10-31T09:13:21;24.50;60.60
21425;DHT22;10873;51.132;16.848;2022-10-31T09:15:49;24.50;60.60
21425;DHT22;10873;51.132;16.848;2022-10-31T09:18:17;24.50;60.60
21425;DHT22;10873;51.132;16.848;2022-10-31T09:20:44;24.50;60.60
21425;DHT22;10873;51.132;16.848;2022-10-31T09:23:12;24.50;60.60
21425;DHT22;10873;51.132;16.848;2022-10-31T09:25:38;24.50;60.60
21425;DHT22;10873;51.132;16.848;2022-10-31T09:28:06;24.50;60.60
21425;DHT22;10873;51.132;16.848;2022-10-31T09:30:34;24.50;60.60
21425;DHT22;10873;51.132;16.848;2022-10-31T09:33:03;24.50;60.60
21425;DHT22;10873;51.132;16.848;2022-10-31T09:35:30;24.60;60.60
21425;DHT22;10873;51.132;16.848;2022-10-31T09:37:57;24.60;60.60
21425;DHT22;10873;51.132;16.848;2022-10-31T09:40:29;24.60;60.60
21425;DHT22;10873;51.132;16.848;2022-10-31T09:43:02;24.60;60.60
21425;DHT22;10873;51.132;16.848;2022-10-31T09:45:35;24.60;60.50
21425;DHT22;10873;51.132;16.848;2022-10-31T09:48:19;24.60;60.50
21425;DHT22;10873;51.132;16.848;2022-10-31T09:50:51;24.60;60.40
21425;DHT22;10873;51.132;16.848;2022-10-31T09:53:23;24.60;60.40
21425;DHT22;10873;51.132;16.848;2022-10-31T09:55:52;24.60;60.40
21425;DHT22;10873;51.132;16.848;2022-10-31T09:58:20;24.60;60.40
21425;DHT22;10873;51.132;16.848;2022-10-31T10:00:48;24.60;60.40
21425;DHT22;10873;51.132;16.848;2022-10-31T10:03:27;24.70;60.50
21425;DHT22;10873;51.132;16.848;2022-10-31T10:05:59;24.70;60.50
21425;DHT22;10873;51.132;16.848;2022-10-31T10:08:31;24.70;60.50
21425;DHT22;10873;51.132;16.848;2022-10-31T10:11:08;24.70;60.60
21425;DHT22;10873;51.132;16.848;2022-10-31T10:14:05;24.70;60.60
21425;DHT22;10873;51.132;16.848;2022-10-31T10:16:53;24.70;60.60
21425;DHT22;10873;51.132;16.848;2022-10-31T10:19:32;24.70;60.70
21425;DHT22;10873;51.132;16.848;2022-10-31T10:22:04;24.70;60.70
21425;DHT22;10873;51.132;16.848;2022-10-31T10:24:54;24.70;60.70
21425;DHT22;10873;51.132;16.848;2022-10-31T10:27:27;24.80;60.80
21425;DHT22;10873;51.132;16.848;2022-10-31T10:30:00;24.80;60.70
21425;DHT22;10873;51.132;16.848;2022-10-31T10:32:29;24.80;60.80
21425;DHT22;10873;51.132;16.848;2022-10-31T10:35:02;24.80;60.80
21425;DHT22;10873;51.132;16.848;2022-10-31T10:37:37;24.80;60.90
21425;DHT22;10873;51.132;16.848;2022-10-31T10:40:11;24.80;60.90
21425;DHT22;10873;51.132;16.848;2022-10-31T10:42:40;24.80;60.90
21425;DHT22;10873;51.132;16.848;2022-10-31T10:45:26;24.80;61.00
21425;DHT22;10873;51.132;16.848;2022-10-31T10:48:15;24.80;61.10
21425;DHT22;10873;51.132;16.848;2022-10-31T10:50:47;24.80;61.10
21425;DHT22;10873;51.132;16.848;2022-10-31T10:53:28;24.80;61.20
21425;DHT22;10873;51.132;16.848;2022-10-31T10:56:11;24.80;61.20
21425;DHT22;10873;51.132;16.848;2022-10-31T10:58:38;24.80;61.20
21425;DHT22;10873;51.132;16.848;2022-10-31T11:01:10;24.80;61.30
21425;DHT22;10873;51.132;16.848;2022-10-31T11:03:37;24.90;61.40
21425;DHT22;10873;51.132;16.848;2022-10-31T11:06:15;24.90;61.40
21425;DHT22;10873;51.132;16.848;2022-10-31T11:08:42;24.90;61.40
21425;DHT22;10873;51.132;16.848;2022-10-31T11:11:24;24.90;61.40
21425;DHT22;10873;51.132;16.848;2022-10-31T11:13:59;25.00;61.40
21425;DHT22;10873;51.132;16.848;2022-10-31T11:16:31;25.00;61.30
21425;DHT22;10873;51.132;16.848;2022-10-31T11:19:08;25.10;61.30
21425;DHT22;10873;51.132;16.848;2022-10-31T11:21:35;25.10;61.30
21425;DHT22;10873;51.132;16.848;2022-10-31T11:24:03;25.10;61.20
21425;DHT22;10873;51.132;16.848;2022-10-31T11:26:30;25.20;61.30
21425;DHT22;10873;51.132;16.848;2022-10-31T11:28:57;25.20;61.30
21425;DHT22;10873;51.132;16.848;2022-10-31T11:31:23;25.20;61.40
21425;DHT22;10873;51.132;16.848;2022-10-31T11:33:53;25.20;61.50
21425;DHT22;10873;51.132;16.848;2022-10-31T11:36:24;25.20;61.50
21425;DHT22;10873;51.132;16.848;2022-10-31T11:38:53;25.20;61.50
21425;DHT22;10873;51.132;16.848;2022-10-31T11:41:25;25.20;61.50
21425;DHT22;10873;51.132;16.848;2022-10-31T11:43:54;25.20;61.50
21425;DHT22;10873;51.132;16.848;2022-10-31T11:46:26;25.20;61.60
21425;DHT22;10873;51.132;16.848;2022-10-31T11:48:55;25.20;61.60
21425;DHT22;10873;51.132;16.848;2022-10-31T11:51:25;25.20;61.60
21425;DHT22;10873;51.132;16.848;2022-10-31T11:53:55;25.20;61.60
21425;DHT22;10873;51.132;16.848;2022-10-31T11:56:22;25.20;61.60
21425;DHT22;10873;51.132;16.848;2022-10-31T11:58:56;25.20;61.60
21425;DHT22;10873;51.132;16.848;2022-10-31T12:01:25;25.30;61.60
21425;DHT22;10873;51.132;16.848;2022-10-31T12:03:58;25.30;61.60
21425;DHT22;10873;51.132;16.848;2022-10-31T12:06:30;25.30;61.60
21425;DHT22;10873;51.132;16.848;2022-10-31T12:08:59;25.30;61.60
21425;DHT22;10873;51.132;16.848;2022-10-31T12:11:41;25.30;61.50
21425;DHT22;10873;51.132;16.848;2022-10-31T12:14:19;25.30;61.60
21425;DHT22;10873;51.132;16.848;2022-10-31T12:16:53;25.30;61.60
21425;DHT22;10873;51.132;16.848;2022-10-31T12:19:31;25.30;61.60
21425;DHT22;10873;51.132;16.848;2022-10-31T12:22:05;25.30;61.60
21425;DHT22;10873;51.132;16.848;2022-10-31T12:24:50;25.30;61.60
21425;DHT22;10873;51.132;16.848;2022-10-31T12:27:28;25.30;61.70
21425;DHT22;10873;51.132;16.848;2022-10-31T12:30:14;25.30;61.60
21425;DHT22;10873;51.132;16.848;2022-10-31T12:32:55;25.30;61.70
21425;DHT22;10873;51.132;16.848;2022-10-31T12:35:30;25.30;61.60
21425;DHT22;10873;51.132;16.848;2022-10-31T12:38:20;25.30;61.60
21425;DHT22;10873;51.132;16.848;2022-10-31T12:41:01;25.40;61.70
21425;DHT22;10873;51.132;16.848;2022-10-31T12:43:36;25.30;61.60
21425;DHT22;10873;51.132;16.848;2022-10-31T12:46:07;25.30;61.60
21425;DHT22;10873;51.132;16.848;2022-10-31T12:49:00;25.30;61.60
21425;DHT22;10873;51.132;16.848;2022-10-31T12:51:36;25.40;61.80
21425;DHT22;10873;51.132;16.848;2022-10-31T12:54:17;25.40;61.80
21425;DHT22;10873;51.132;16.848;2022-10-31T12:56:54;25.40;61.80
21425;DHT22;10873;51.132;16.848;2022-10-31T12:59:28;25.40;61.80
21425;DHT22;10873;51.132;16.848;2022-10-31T13:01:59;25.40;61.70
21425;DHT22;10873;51.132;16.848;2022-10-31T13:04:36;25.40;61.80
21425;DHT22;10873;51.132;16.848;2022-10-31T13:07:09;25.40;61.80
21425;DHT22;10873;51.132;16.848;2022-10-31T13:09:40;25.40;61.90
21425;DHT22;10873;51.132;16.848;2022-10-31T13:12:11;25.40;61.90
21425;DHT22;10873;51.132;16.848;2022-10-31T13:14:40;25.40;61.90
21425;DHT22;10873;51.132;16.848;2022-10-31T13:17:15;25.40;61.90
21425;DHT22;10873;51.132;16.848;2022-10-31T13:19:44;25.40;61.90
21425;DHT22;10873;51.132;16.848;2022-10-31T13:22:17;25.40;61.90
21425;DHT22;10873;51.132;16.848;2022-10-31T13:24:59;25.40;61.90
21425;DHT22;10873;51.132;16.848;2022-10-31T13:27:42;25.40;62.70
21425;DHT22;10873;51.132;16.848;2022-10-31T13:30:14;25.40;62.00
21425;DHT22;10873;51.132;16.848;2022-10-31T13:32:44;25.40;62.10
21425;DHT22;10873;51.132;16.848;2022-10-31T13:35:16;25.50;62.90
21425;DHT22;10873;51.132;16.848;2022-10-31T13:37:48;25.50;62.10
21425;DHT22;10873;51.132;16.848;2022-10-31T13:40:23;25.50;62.10
21425;DHT22;10873;51.132;16.848;2022-10-31T13:42:59;25.50;62.10
21425;DHT22;10873;51.132;16.848;2022-10-31T13:45:26;25.50;62.10
21425;DHT22;10873;51.132;16.848;2022-10-31T13:47:58;25.50;62.10
21425;DHT22;10873;51.132;16.848;2022-10-31T13:50:26;25.50;62.90
21425;DHT22;10873;51.132;16.848;2022-10-31T13:53:13;25.50;62.10
21425;DHT22;10873;51.132;16.848;2022-10-31T13:55:42;25.50;62.00
21425;DHT22;10873;51.132;16.848;2022-10-31T13:58:23;25.50;62.10
21425;DHT22;10873;51.132;16.848;2022-10-31T14:01:10;25.50;62.10
21425;DHT22;10873;51.132;16.848;2022-10-31T14:03:39;25.50;62.10
21425;DHT22;10873;51.132;16.848;2022-10-31T14:06:06;25.50;62.10
21425;DHT22;10873;51.132;16.848;2022-10-31T14:08:36;25.60;62.20
21425;DHT22;10873;51.132;16.848;2022-10-31T14:11:03;25.60;62.20
21425;DHT22;10873;51.132;16.848;2022-10-31T14:13:34;25.60;62.20
21425;DHT22;10873;51.132;16.848;2022-10-31T14:16:05;25.60;62.20
21425;DHT22;10873;51.132;16.848;2022-10-31T14:18:34;25.60;62.10
21425;DHT22;10873;51.132;16.848;2022-10-31T14:21:01;25.70;62.00
21425;DHT22;10873;51.132;16.848;2022-10-31T14:23:40;25.80;61.90
21425;DHT22;10873;51.132;16.848;2022-10-31T14:26:32;25.80;61.80
21425;DHT22;10873;51.132;16.848;2022-10-31T14:29:01;25.80;61.70
21425;DHT22;10873;51.132;16.848;2022-10-31T14:31:35;25.80;61.60
21425;DHT22;10873;51.132;16.848;2022-10-31T14:34:20;25.90;61.70
21425;DHT22;10873;51.132;16.848;2022-10-31T14:36:57;25.90;61.70
21425;DHT22;10873;51.132;16.848;2022-10-31T14:39:31;25.90;61.70
21425;DHT22;10873;51.132;16.848;2022-10-31T14:42:12;25.90;61.60
21425;DHT22;10873;51.132;16.848;2022-10-31T14:45:02;25.90;61.70
21425;DHT22;10873;51.132;16.848;2022-10-31T14:47:39;25.90;61.60
21425;DHT22;10873;51.132;16.848;2022-10-31T14:50:20;25.90;61.60
21425;DHT22;10873;51.132;16.848;2022-10-31T14:52:50;25.90;61.70
21425;DHT22;10873;51.132;16.848;2022-10-31T14:55:18;25.90;61.70
21425;DHT22;10873;51.132;16.848;2022-10-31T14:57:49;25.90;61.70
21425;DHT22;10873;51.132;16.848;2022-10-31T15:00:19;25.90;61.70
21425;DHT22;10873;51.132;16.848;2022-10-31T15:02:55;25.90;61.70
21425;DHT22;10873;51.132;16.848;2022-10-31T15:05:23;25.90;61.80
21425;DHT22;10873;51.132;16.848;2022-10-31T15:07:52;25.90;61.80
21425;DHT22;10873;51.132;16.848;2022-10-31T15:10:21;25.90;61.80
21425;DHT22;10873;51.132;16.848;2022-10-31T15:12:48;25.90;61.90
21425;DHT22;10873;51.132;16.848;2022-10-31T15:15:19;25.90;61.90
21425;DHT22;10873;51.132;16.848;2022-10-31T15:17:48;25.80;61.80
21425;DHT22;10873;51.132;16.848;2022-10-31T15:20:19;25.80;61.90
21425;DHT22;10873;51.132;16.848;2022-10-31T15:22:46;25.90;62.00
21425;DHT22;10873;51.132;16.848;2022-10-31T15:25:17;25.80;61.90
21425;DHT22;10873;51.132;16.848;2022-10-31T15:27:44;25.80;61.90
21425;DHT22;10873;51.132;16.848;2022-10-31T15:30:20;25.80;61.90
21425;DHT22;10873;51.132;16.848;2022-10-31T15:32:47;25.80;61.90
21425;DHT22;10873;51.132;16.848;2022-10-31T15:35:21;25.80;61.90
21425;DHT22;10873;51.132;16.848;2022-10-31T15:37:47;25.80;61.90